Tonic Sea — D5AZ8 — position and weather

sailwx.info

Track history (hours):
 
Tides and Currents Weather Stations Pressure Air Temp Water Temp Dewpoint Dewpoint Depression Visibility Wind Speed Wind Dir Waves Ship Positions

Tonic Sea

Last reported at 2014-Dec-17 06:21 UTC. Time now 2014-Dec-19 23:31 UTC.
Position N 35°58' W 005°35'.

Length 229 m; draft 9.1 m.

Type: Cargo ship. MMSI: 636015479.

Date/timePositionNaut miles runAvg speedWind from/ knotsBaromVisibWave heightAir tempDewpointWater temp
2014-Dec-17 06:21N 35°58' W 005°35'6 7.8
2014-Dec-17 05:33N 36°00' W 005°28'7 7.5
2014-Dec-17 04:33N 36°06' W 005°22'0 0.2
2014-Dec-17 03:29N 36°06' W 005°21'0 0.1
2014-Dec-17 02:32N 36°06' W 005°22'0 0.0
2014-Dec-17 01:29N 36°06' W 005°21'0 0.0
2014-Dec-17 00:29N 36°06' W 005°21'0 0.0
2014-Dec-16 23:29N 36°06' W 005°21'0 0.0
2014-Dec-16 22:32N 36°06' W 005°21'0 0.0
2014-Dec-16 21:23N 36°06' W 005°21'0 0.0
2014-Dec-16 20:05N 36°06' W 005°21'1 1.8
2014-Dec-16 19:33N 36°05' W 005°22'3 3.3
2014-Dec-16 18:33N 36°05' W 005°18'3 2.8
2014-Dec-16 17:32N 36°05' W 005°14'9 0.2
2014-Dec-14 20:20N 36°11' W 005°06'1013.4
2014-Dec-14 19:34N 36°06' W 005°18'5 3.4
2014-Dec-14 18:14N 36°08' W 005°23'0 0.0
2014-Dec-14 17:05N 36°08' W 005°23'0 0.0
2014-Dec-14 16:23N 36°08' W 005°23'0 0.0
2014-Dec-14 15:32N 36°08' W 005°23'0 0.0
2014-Dec-14 14:32N 36°08' W 005°23'0 0.0
2014-Dec-14 13:29N 36°08' W 005°23'0 0.1
2014-Dec-14 12:32N 36°08' W 005°23'0 0.2
2014-Dec-14 11:33N 36°08' W 005°23'4 3.7
2014-Dec-14 10:33N 36°05' W 005°20'4 3.5
2014-Dec-14 09:33N 36°05' W 005°16'333 9.4
2014-Dec-12 22:13N 36°56' E 001°34'710.0
2014-Dec-12 21:28N 36°57' E 001°44'2612.4
2014-Dec-12 19:21N 37°01' E 002°16'13 7.2
2014-Dec-12 17:33N 37°03' E 002°32'9 9.4
2014-Dec-12 16:33N 37°05' E 002°44'14 9.9
2014-Dec-12 15:06N 37°08' E 003°01'  
2014-Dec-10 03:18N 36°48' E 013°32'710.0
2014-Dec-10 02:33N 36°45' E 013°40'10 9.9
2014-Dec-10 01:33N 36°41' E 013°52'10 9.9
2014-Dec-10 00:33N 36°38' E 014°03'1010.0
2014-Dec-09 23:33N 36°34' E 014°15'10 9.9
2014-Dec-09 22:33N 36°31' E 014°27'  
Track history (hours):
 
Tides and Currents Weather Stations Pressure Air Temp Water Temp Dewpoint Dewpoint Depression Visibility Wind Speed Wind Dir Waves Ship Positions

Tonic Sea

Last reported at 2014-Dec-17 06:21 UTC. Time now 2014-Dec-19 23:31 UTC.
Position N 35°58' W 005°35'.

Length 229 m; draft 9.1 m.

Type: Cargo ship. MMSI: 636015479.

Date/timePositionNaut miles runAvg speedWind from/ knotsBaromVisibWave heightAir tempDewpointWater temp
2014-Dec-17 06:21N 35°58' W 005°35'6 7.8
2014-Dec-17 05:33N 36°00' W 005°28'7 7.5
2014-Dec-17 04:33N 36°06' W 005°22'0 0.2
2014-Dec-17 03:29N 36°06' W 005°21'0 0.1
2014-Dec-17 02:32N 36°06' W 005°22'0 0.0
2014-Dec-17 01:29N 36°06' W 005°21'0 0.0
2014-Dec-17 00:29N 36°06' W 005°21'0 0.0
2014-Dec-16 23:29N 36°06' W 005°21'0 0.0
2014-Dec-16 22:32N 36°06' W 005°21'0 0.0
2014-Dec-16 21:23N 36°06' W 005°21'0 0.0
2014-Dec-16 20:05N 36°06' W 005°21'1 1.8
2014-Dec-16 19:33N 36°05' W 005°22'3 3.3
2014-Dec-16 18:33N 36°05' W 005°18'3 2.8
2014-Dec-16 17:32N 36°05' W 005°14'9 0.2
2014-Dec-14 20:20N 36°11' W 005°06'1013.4
2014-Dec-14 19:34N 36°06' W 005°18'5 3.4
2014-Dec-14 18:14N 36°08' W 005°23'0 0.0
2014-Dec-14 17:05N 36°08' W 005°23'0 0.0
2014-Dec-14 16:23N 36°08' W 005°23'0 0.0
2014-Dec-14 15:32N 36°08' W 005°23'0 0.0
2014-Dec-14 14:32N 36°08' W 005°23'0 0.0
2014-Dec-14 13:29N 36°08' W 005°23'0 0.1
2014-Dec-14 12:32N 36°08' W 005°23'0 0.2
2014-Dec-14 11:33N 36°08' W 005°23'4 3.7
2014-Dec-14 10:33N 36°05' W 005°20'4 3.5
2014-Dec-14 09:33N 36°05' W 005°16'333 9.4
2014-Dec-12 22:13N 36°56' E 001°34'710.0
2014-Dec-12 21:28N 36°57' E 001°44'2612.4
2014-Dec-12 19:21N 37°01' E 002°16'13 7.2
2014-Dec-12 17:33N 37°03' E 002°32'9 9.4
2014-Dec-12 16:33N 37°05' E 002°44'14 9.9
2014-Dec-12 15:06N 37°08' E 003°01'  
2014-Dec-10 03:18N 36°48' E 013°32'710.0
2014-Dec-10 02:33N 36°45' E 013°40'10 9.9
2014-Dec-10 01:33N 36°41' E 013°52'10 9.9
2014-Dec-10 00:33N 36°38' E 014°03'1010.0
2014-Dec-09 23:33N 36°34' E 014°15'10 9.9
2014-Dec-09 22:33N 36°31' E 014°27'  

Dump ship's entire track history